createdAt,value
2022-10-20T00:02:34.127Z,98948.28
2022-10-20T00:05:36.737Z,98946.78
2022-10-20T00:08:39.796Z,98954.13
2022-10-20T00:11:42.911Z,98953.00
2022-10-20T00:14:44.733Z,98955.59
2022-10-20T00:17:46.808Z,98954.34
2022-10-20T00:20:49.297Z,98954.53
2022-10-20T00:24:01.679Z,98960.50
2022-10-20T00:27:04.070Z,98956.59
2022-10-20T00:30:06.430Z,98958.69
2022-10-20T00:33:08.094Z,98954.72
2022-10-20T00:36:13.864Z,98958.69
2022-10-20T00:39:15.666Z,98962.75
2022-10-20T00:42:19.155Z,98950.66
2022-10-20T00:45:22.102Z,98959.94
2022-10-20T00:48:26.362Z,98954.72
2022-10-20T00:51:30.199Z,98953.28
2022-10-20T00:54:32.034Z,98954.28
2022-10-20T00:57:34.255Z,98951.78
2022-10-20T01:00:50.625Z,98945.72
2022-10-20T01:03:52.789Z,98952.44
2022-10-20T01:06:54.798Z,98944.38
2022-10-20T01:09:57.063Z,98947.25
2022-10-20T01:13:04.843Z,98933.19
2022-10-20T01:16:42.412Z,98941.78
2022-10-20T01:20:20.853Z,98946.97
2022-10-20T01:23:39.061Z,98934.88
2022-10-20T01:27:17.304Z,98938.44
2022-10-20T01:30:21.483Z,98939.78
2022-10-20T01:33:42.330Z,98937.38
2022-10-20T01:37:02.868Z,98934.13
2022-10-20T01:40:13.427Z,98942.72
2022-10-20T01:43:18.511Z,98944.03
2022-10-20T01:46:22.416Z,98940.69
2022-10-20T01:49:24.870Z,98938.03
2022-10-20T01:52:28.493Z,98946.44
2022-10-20T01:55:30.739Z,98938.06
2022-10-20T01:58:51.287Z,98944.31
2022-10-20T02:02:20.768Z,98936.03
2022-10-20T02:05:44.658Z,98940.63
2022-10-20T02:09:00.626Z,98942.34
2022-10-20T02:12:29.557Z,98936.19
2022-10-20T02:15:32.171Z,98946.66
2022-10-20T02:18:39.589Z,98947.22
2022-10-20T02:21:41.290Z,98942.16
2022-10-20T02:24:45.129Z,98939.53
2022-10-20T02:27:48.510Z,98940.50
2022-10-20T02:30:52.709Z,98944.06
2022-10-20T02:33:58.618Z,98944.44
2022-10-20T02:37:02.373Z,98937.19
2022-10-20T02:40:05.916Z,98942.19
2022-10-20T02:43:07.823Z,98935.72
2022-10-20T02:46:10.602Z,98937.75
2022-10-20T02:49:12.432Z,98933.97
2022-10-20T02:52:14.503Z,98929.69
2022-10-20T02:58:18.269Z,98936.13
2022-10-20T03:01:20.518Z,98933.34
2022-10-20T03:04:22.805Z,98937.81
2022-10-20T03:07:24.590Z,98931.13
2022-10-20T03:10:26.946Z,98922.31
2022-10-20T03:16:31.921Z,98931.00
2022-10-20T03:19:33.793Z,98932.53
2022-10-20T03:22:35.511Z,98937.91
2022-10-20T03:25:37.764Z,98952.50
2022-10-20T03:28:40.065Z,98949.63
2022-10-20T03:31:41.814Z,98945.06
2022-10-20T03:34:44.236Z,98959.28
2022-10-20T03:37:46.029Z,98950.81
2022-10-20T03:40:48.014Z,98953.41
2022-10-20T03:43:50.369Z,98955.84
2022-10-20T03:46:52.240Z,98949.13
2022-10-20T03:49:54.962Z,98952.81
2022-10-20T03:52:57.885Z,98950.78
2022-10-20T03:55:59.779Z,98951.44
2022-10-20T04:02:03.799Z,98937.44
2022-10-20T04:05:06.692Z,98936.72
2022-10-20T04:08:09.101Z,98933.34
2022-10-20T04:11:10.849Z,98929.91
2022-10-20T04:14:12.843Z,98934.94
2022-10-20T04:17:15.023Z,98932.03
2022-10-20T04:20:17.501Z,98925.72
2022-10-20T04:23:19.700Z,98933.91
2022-10-20T04:26:21.453Z,98928.53
2022-10-20T04:29:24.124Z,98936.31
2022-10-20T04:32:26.102Z,98939.13
2022-10-20T04:35:27.869Z,98938.38
2022-10-20T04:38:31.355Z,98938.28
2022-10-20T04:41:33.360Z,98935.38
2022-10-20T04:44:36.146Z,98928.88
2022-10-20T04:47:39.424Z,98925.53
2022-10-20T04:50:42.630Z,98914.44
2022-10-20T04:53:45.617Z,98926.84
2022-10-20T04:56:47.897Z,98913.06
2022-10-20T04:59:50.330Z,98909.94
2022-10-20T05:02:52.671Z,98909.53
2022-10-20T05:05:55.196Z,98901.91
2022-10-20T05:09:00.528Z,98913.41
2022-10-20T05:12:03.447Z,98908.94
2022-10-20T05:15:05.735Z,98905.38
2022-10-20T05:18:08.239Z,98910.88
2022-10-20T05:21:13.714Z,98907.34
2022-10-20T05:24:21.363Z,98905.81
2022-10-20T05:27:26.366Z,98909.94
2022-10-20T05:30:29.398Z,98904.06
2022-10-20T05:33:31.864Z,98909.72
2022-10-20T05:36:34.157Z,98904.44
2022-10-20T05:39:44.353Z,98918.09
2022-10-20T05:42:46.881Z,98937.44
2022-10-20T05:45:54.690Z,98932.72
2022-10-20T05:48:59.348Z,98931.09
2022-10-20T05:52:01.830Z,98932.59
2022-10-20T05:55:05.003Z,98930.09
2022-10-20T05:58:07.135Z,98930.38
2022-10-20T06:01:18.021Z,98940.97
2022-10-20T06:04:24.922Z,98936.88
2022-10-20T06:07:26.901Z,98944.66
2022-10-20T06:10:29.616Z,98952.75
2022-10-20T06:13:32.618Z,98943.34
2022-10-20T06:16:35.923Z,98956.16
2022-10-20T06:19:38.212Z,98954.81
2022-10-20T06:22:40.271Z,98955.53
2022-10-20T06:25:42.331Z,98963.25
2022-10-20T06:28:45.717Z,98956.06
2022-10-20T06:31:50.290Z,98950.47
2022-10-20T06:34:54.071Z,98951.22
2022-10-20T06:37:56.925Z,98958.28
2022-10-20T06:41:07.588Z,98954.66
2022-10-20T06:44:09.994Z,98954.00
2022-10-20T06:47:12.204Z,98955.16
2022-10-20T06:50:14.650Z,98962.09
2022-10-20T06:53:17.056Z,98972.25
2022-10-20T06:56:21.409Z,98970.56
2022-10-20T06:59:23.392Z,98964.50
2022-10-20T07:02:25.553Z,98965.84
2022-10-20T07:05:27.455Z,98973.19
2022-10-20T07:08:31.107Z,98965.63
2022-10-20T07:11:34.990Z,98963.81
2022-10-20T07:14:37.948Z,98974.06
2022-10-20T07:17:40.368Z,98970.75
2022-10-20T07:20:42.517Z,98974.09
2022-10-20T07:23:45.884Z,98973.25
2022-10-20T07:26:48.033Z,98975.91
2022-10-20T07:29:49.940Z,98978.16
2022-10-20T07:32:54.377Z,98977.78
2022-10-20T07:35:57.211Z,98978.84
2022-10-20T07:39:01.485Z,98983.28
2022-10-20T07:42:03.356Z,98979.25
2022-10-20T07:45:06.417Z,98986.00
2022-10-20T07:48:10.039Z,98984.59
2022-10-20T07:51:27.645Z,98982.22
2022-10-20T07:54:29.896Z,98997.22
2022-10-20T07:57:32.036Z,98998.66
2022-10-20T08:00:34.414Z,98991.72
2022-10-20T08:03:37.239Z,98994.47
2022-10-20T08:06:39.773Z,98981.13
2022-10-20T08:09:42.850Z,98988.16
2022-10-20T08:12:44.537Z,98998.28
2022-10-20T08:15:47.451Z,99001.53
2022-10-20T08:21:58.164Z,98989.31
2022-10-20T08:25:00.273Z,99001.22
2022-10-20T08:28:03.249Z,98995.03
2022-10-20T08:31:06.551Z,98991.59
2022-10-20T08:34:09.657Z,98995.28
2022-10-20T08:37:11.628Z,98990.69
2022-10-20T08:40:20.698Z,98992.78
2022-10-20T08:43:23.410Z,98982.34
2022-10-20T08:46:30.801Z,98983.00
2022-10-20T08:49:34.289Z,98979.47
2022-10-20T08:52:39.681Z,98976.13
2022-10-20T08:55:44.079Z,98984.91
2022-10-20T08:58:47.370Z,98985.00
2022-10-20T09:01:49.208Z,98983.28
2022-10-20T09:04:57.562Z,98983.13
2022-10-20T09:07:59.429Z,98984.50
2022-10-20T09:11:03.429Z,98988.69
2022-10-20T09:14:05.625Z,98990.03
2022-10-20T09:17:13.826Z,98981.72
2022-10-20T09:20:35.523Z,98987.38
2022-10-20T09:23:43.937Z,98979.53
2022-10-20T09:27:03.963Z,98986.22
2022-10-20T09:30:26.703Z,98980.97
2022-10-20T09:33:30.085Z,98986.81
2022-10-20T09:36:35.976Z,98973.16
2022-10-20T09:39:51.316Z,98983.56
2022-10-20T09:43:02.758Z,98981.91
2022-10-20T09:46:07.601Z,98981.94
2022-10-20T09:49:27.641Z,98983.03
2022-10-20T09:52:35.209Z,98979.69
2022-10-20T09:55:42.527Z,98983.44
2022-10-20T09:58:47.650Z,98977.50
2022-10-20T10:02:15.820Z,98981.69
2022-10-20T10:05:21.653Z,98986.09
2022-10-20T10:08:26.518Z,98977.06
2022-10-20T10:11:36.408Z,98974.72
2022-10-20T10:14:39.731Z,98971.09
2022-10-20T10:17:43.143Z,98972.78
2022-10-20T10:20:45.423Z,98971.97
2022-10-20T10:24:00.005Z,98970.28
2022-10-20T10:27:02.705Z,98966.16
2022-10-20T10:30:16.816Z,98963.19
2022-10-20T10:33:29.387Z,98958.59
2022-10-20T10:36:35.670Z,98958.28
2022-10-20T10:39:37.717Z,98942.69
2022-10-20T10:43:16.086Z,98946.59
2022-10-20T10:46:29.062Z,98951.91
2022-10-20T10:49:49.888Z,98940.81
2022-10-20T10:53:13.548Z,98932.38
2022-10-20T10:56:38.275Z,98936.16
2022-10-20T10:59:43.894Z,98928.78
2022-10-20T11:02:59.894Z,98927.13
2022-10-20T11:06:16.908Z,98920.78
2022-10-20T11:09:48.172Z,98918.38
2022-10-20T11:12:53.154Z,98911.09
2022-10-20T11:16:31.519Z,98907.53
2022-10-20T11:19:54.928Z,98903.41
2022-10-20T11:23:13.722Z,98893.00
2022-10-20T11:26:29.452Z,98891.34
2022-10-20T11:29:42.475Z,98896.97
2022-10-20T11:33:13.159Z,98893.00
2022-10-20T11:36:19.936Z,98884.25
2022-10-20T11:39:45.510Z,98878.56
2022-10-20T11:42:55.568Z,98878.50
2022-10-20T11:46:01.660Z,98871.09
2022-10-20T11:49:04.891Z,98872.28
2022-10-20T11:52:19.737Z,98879.28
2022-10-20T11:55:51.372Z,98859.31
2022-10-20T11:59:29.918Z,98861.28
2022-10-20T12:02:59.427Z,98854.84
2022-10-20T12:06:27.726Z,98854.56
2022-10-20T12:09:55.332Z,98842.72
2022-10-20T12:13:18.588Z,98839.69
2022-10-20T12:16:52.660Z,98839.31
2022-10-20T12:20:20.814Z,98831.63
2022-10-20T12:23:51.897Z,98832.97
2022-10-20T12:27:09.540Z,98838.16
2022-10-20T12:30:39.604Z,98843.13
2022-10-20T12:34:00.744Z,98840.28
2022-10-20T12:37:28.440Z,98834.56
2022-10-20T12:40:33.137Z,98829.47
2022-10-20T12:43:51.432Z,98821.69
2022-10-20T12:46:58.908Z,98824.66
2022-10-20T12:50:34.836Z,98812.97
2022-10-20T12:53:37.254Z,98808.78
2022-10-20T12:56:41.106Z,98808.84
2022-10-20T12:59:44.157Z,98811.16
2022-10-20T13:02:55.544Z,98804.84
2022-10-20T13:05:59.391Z,98807.84
2022-10-20T13:09:04.756Z,98814.78
2022-10-20T13:12:25.399Z,98808.47
2022-10-20T13:15:51.974Z,98804.81
2022-10-20T13:18:53.998Z,98799.41
2022-10-20T13:21:56.022Z,98799.22
2022-10-20T13:24:59.371Z,98806.50
2022-10-20T13:28:12.973Z,98806.13
2022-10-20T13:31:29.391Z,98804.59
2022-10-20T13:34:49.640Z,98796.47
2022-10-20T13:38:09.670Z,98802.44
2022-10-20T13:41:16.976Z,98800.47
2022-10-20T13:44:44.083Z,98801.16
2022-10-20T13:48:16.364Z,98803.00
2022-10-20T13:51:25.476Z,98803.53
2022-10-20T13:54:33.665Z,98802.00
2022-10-20T13:57:36.723Z,98791.78
2022-10-20T14:00:39.027Z,98792.81
2022-10-20T14:03:46.473Z,98798.53
2022-10-20T14:06:48.835Z,98785.41
2022-10-20T14:09:57.678Z,98791.66
2022-10-20T14:13:01.510Z,98790.19
2022-10-20T14:16:12.250Z,98781.88
2022-10-20T14:19:14.359Z,98783.41
2022-10-20T14:22:25.696Z,98776.59
2022-10-20T14:25:28.384Z,98781.16
2022-10-20T14:28:33.678Z,98772.69
2022-10-20T14:31:35.534Z,98770.16
2022-10-20T14:34:37.869Z,98774.22
2022-10-20T14:37:45.764Z,98762.63
2022-10-20T14:41:07.924Z,98763.97
2022-10-20T14:44:30.949Z,98761.94
2022-10-20T14:47:41.815Z,98759.94
2022-10-20T14:50:44.503Z,98749.38
2022-10-20T14:53:47.208Z,98757.56
2022-10-20T14:56:52.557Z,98765.38
2022-10-20T15:00:04.107Z,98768.28
2022-10-20T15:03:07.352Z,98766.94
2022-10-20T15:06:16.731Z,98756.63
2022-10-20T15:09:55.525Z,98756.19
2022-10-20T15:12:57.932Z,98749.94
2022-10-20T15:16:03.291Z,98750.13
2022-10-20T15:19:18.530Z,98749.69
2022-10-20T15:22:20.750Z,98754.78
2022-10-20T15:25:25.332Z,98755.66
2022-10-20T15:28:38.539Z,98752.44
2022-10-20T15:31:40.989Z,98756.38
2022-10-20T15:34:44.112Z,98752.25
2022-10-20T15:37:51.261Z,98752.94
2022-10-20T15:40:53.728Z,98756.84
2022-10-20T15:43:55.952Z,98753.22
2022-10-20T15:47:01.305Z,98756.66
2022-10-20T15:50:03.483Z,98754.16
2022-10-20T15:53:06.354Z,98756.88
2022-10-20T15:56:08.796Z,98757.09
2022-10-20T15:59:12.047Z,98761.00
2022-10-20T16:02:14.487Z,98756.22
2022-10-20T16:05:18.397Z,98753.38
2022-10-20T16:08:20.799Z,98749.22
2022-10-20T16:11:23.089Z,98756.41
2022-10-20T16:14:25.978Z,98753.47
2022-10-20T16:17:28.223Z,98749.56
2022-10-20T16:20:30.077Z,98753.78
2022-10-20T16:23:32.629Z,98757.56
2022-10-20T16:26:34.470Z,98766.06
2022-10-20T16:29:37.409Z,98763.72
2022-10-20T16:32:39.695Z,98765.41
2022-10-20T16:35:43.154Z,98769.06
2022-10-20T16:38:45.585Z,98767.50
2022-10-20T16:41:47.971Z,98761.03
2022-10-20T16:44:51.054Z,98776.66
2022-10-20T16:47:53.178Z,98783.47
2022-10-20T16:50:55.500Z,98790.50
2022-10-20T16:54:02.857Z,98781.59
2022-10-20T16:57:08.350Z,98787.09
2022-10-20T17:00:10.822Z,98791.25
2022-10-20T17:03:16.974Z,98787.78
2022-10-20T17:06:24.819Z,98785.97
2022-10-20T17:09:27.352Z,98782.88
2022-10-20T17:12:29.373Z,98781.78
2022-10-20T17:15:31.956Z,98785.69
2022-10-20T17:18:34.263Z,98789.13
2022-10-20T17:21:36.982Z,98777.91
2022-10-20T17:24:39.551Z,98775.69
2022-10-20T17:27:41.758Z,98773.66
2022-10-20T17:30:45.686Z,98775.38
2022-10-20T17:33:47.963Z,98777.78
2022-10-20T17:36:50.905Z,98775.25
2022-10-20T17:39:53.319Z,98786.66
2022-10-20T17:42:55.687Z,98778.44
2022-10-20T17:46:02.140Z,98776.69
2022-10-20T17:49:04.658Z,98778.75
2022-10-20T17:52:06.813Z,98775.59
2022-10-20T17:55:09.032Z,98773.81
2022-10-20T17:58:11.601Z,98777.59
2022-10-20T18:01:18.610Z,98778.16
2022-10-20T18:04:20.619Z,98779.06
2022-10-20T18:07:22.783Z,98765.72
2022-10-20T18:10:25.367Z,98771.38
2022-10-20T18:13:28.073Z,98776.94
2022-10-20T18:16:33.589Z,98774.38
2022-10-20T18:19:35.555Z,98776.47
2022-10-20T18:22:37.677Z,98776.06
2022-10-20T18:25:40.195Z,98774.63
2022-10-20T18:28:45.716Z,98767.94
2022-10-20T18:31:51.630Z,98765.31
2022-10-20T18:34:54.110Z,98769.00
2022-10-20T18:37:57.761Z,98771.72
2022-10-20T18:41:16.143Z,98767.78
2022-10-20T18:44:20.334Z,98766.91
2022-10-20T18:47:22.753Z,98759.81
2022-10-20T18:50:28.885Z,98756.31
2022-10-20T18:53:32.297Z,98757.56
2022-10-20T18:56:36.213Z,98755.94
2022-10-20T18:59:38.507Z,98759.25
2022-10-20T19:02:41.306Z,98759.47
2022-10-20T19:05:44.077Z,98760.22
2022-10-20T19:08:57.191Z,98762.00
2022-10-20T19:12:02.735Z,98748.13
2022-10-20T19:15:07.384Z,98758.66
2022-10-20T19:18:10.152Z,98754.50
2022-10-20T19:21:12.764Z,98764.69
2022-10-20T19:24:23.012Z,98763.88
2022-10-20T19:27:26.926Z,98760.56
2022-10-20T19:30:40.506Z,98754.91
2022-10-20T19:33:43.182Z,98754.06
2022-10-20T19:36:47.840Z,98754.06
2022-10-20T19:39:51.099Z,98753.03
2022-10-20T19:42:53.126Z,98760.56
2022-10-20T19:45:56.410Z,98758.44
2022-10-20T19:48:59.621Z,98760.97
2022-10-20T19:52:02.049Z,98761.91
2022-10-20T19:55:04.266Z,98762.63
2022-10-20T19:58:06.871Z,98755.94
2022-10-20T20:01:09.984Z,98756.47
2022-10-20T20:04:12.161Z,98756.16
2022-10-20T20:07:14.756Z,98752.16
2022-10-20T20:10:17.317Z,98745.47
2022-10-20T20:13:19.656Z,98746.63
2022-10-20T20:16:22.134Z,98749.66
2022-10-20T20:19:24.675Z,98751.72
2022-10-20T20:22:27.918Z,98752.13
2022-10-20T20:25:30.085Z,98751.00
2022-10-20T20:28:35.610Z,98759.84
2022-10-20T20:31:38.293Z,98760.56
2022-10-20T20:34:41.165Z,98760.22
2022-10-20T20:37:43.431Z,98756.88
2022-10-20T20:40:47.585Z,98751.03
2022-10-20T20:43:50.027Z,98748.94
2022-10-20T20:46:52.290Z,98765.59
2022-10-20T20:49:54.832Z,98756.56
2022-10-20T20:52:56.937Z,98759.38
2022-10-20T20:56:04.983Z,98751.44
2022-10-20T20:59:06.931Z,98747.09
2022-10-20T21:02:11.153Z,98745.28
2022-10-20T21:05:13.419Z,98739.91
2022-10-20T21:08:15.280Z,98734.13
2022-10-20T21:11:20.570Z,98738.69
2022-10-20T21:14:22.441Z,98743.91
2022-10-20T21:17:24.640Z,98737.63
2022-10-20T21:20:26.439Z,98740.53
2022-10-20T21:23:28.735Z,98732.84
2022-10-20T21:26:31.281Z,98739.91
2022-10-20T21:29:33.390Z,98735.56
2022-10-20T21:32:35.909Z,98731.00
2022-10-20T21:35:38.095Z,98741.03
2022-10-20T21:38:42.125Z,98749.94
2022-10-20T21:41:45.656Z,98734.44
2022-10-20T21:44:50.502Z,98730.25
2022-10-20T21:47:56.074Z,98728.69
2022-10-20T21:50:58.261Z,98731.38
2022-10-20T21:54:05.704Z,98732.34
2022-10-20T21:57:08.243Z,98739.31
2022-10-20T22:00:10.571Z,98729.50
2022-10-20T22:03:12.871Z,98724.53
2022-10-20T22:06:16.572Z,98723.66
2022-10-20T22:09:18.943Z,98725.47
2022-10-20T22:12:21.661Z,98730.13
2022-10-20T22:15:23.343Z,98726.81
2022-10-20T22:18:26.177Z,98731.91
2022-10-20T22:21:29.322Z,98717.22
2022-10-20T22:24:31.417Z,98715.78
2022-10-20T22:27:42.271Z,98709.41
2022-10-20T22:30:44.579Z,98708.47
2022-10-20T22:33:46.540Z,98707.22
2022-10-20T22:36:48.920Z,98704.19
2022-10-20T22:39:51.082Z,98705.19
2022-10-20T22:42:52.958Z,98710.59
2022-10-20T22:45:55.704Z,98716.38
2022-10-20T22:52:04.394Z,98721.69
2022-10-20T22:55:06.742Z,98722.69
2022-10-20T22:58:09.208Z,98719.91
2022-10-20T23:01:22.054Z,98713.53
2022-10-20T23:04:24.023Z,98717.72
2022-10-20T23:07:26.100Z,98721.16
2022-10-20T23:10:29.391Z,98714.56
2022-10-20T23:13:31.132Z,98711.75
2022-10-20T23:16:33.483Z,98706.63
2022-10-20T23:19:35.363Z,98706.63
2022-10-20T23:22:37.209Z,98709.97
2022-10-20T23:25:42.957Z,98709.56
2022-10-20T23:28:44.767Z,98700.19
2022-10-20T23:31:47.010Z,98693.72
2022-10-20T23:34:49.213Z,98693.28
2022-10-20T23:37:52.046Z,98698.50
2022-10-20T23:40:54.210Z,98691.16
2022-10-20T23:43:55.908Z,98687.09
2022-10-20T23:46:58.283Z,98694.59
2022-10-20T23:50:00.798Z,98682.00
2022-10-20T23:53:02.639Z,98671.91
2022-10-20T23:56:05.188Z,98681.63
2022-10-20T23:59:06.955Z,98680.06
